LFYR 221500Z AUTO 22012KT 190V260 CAVOK 13/06 Q1030

ElémentsDécodage
LFYR Station météo située sur l'aérodrome de ROMORANTIN Pruniers
221500Z émis le 22 du mois à 15h00 UTC
AUTO Bulletin édité par un automate
22012KT vent du 220°, 12 noeuds
190V260 vent de direction variable entre 190° et 260°
CAVOK Ceiling And Visibility OK
- Visibilité de 10 Km ou plus
- Pas de nuage au-dessous de 1500m ou au-dessous de l'altitude minimale du secteur la plus élevée (si>1500m) et absence de CB
- pas de temps présent significatif
13/06 température 13°C, point de rosée 06°C
 soit une humidité relative de 62%
Q1030 la pression au niveau de la mer (QNH) est de 1030 hPa